createdAt,value
2019-03-12T00:00:57.389Z,3.95
2019-03-12T00:03:27.214Z,4.55
2019-03-12T00:05:56.705Z,3.92
2019-03-12T00:08:26.118Z,4.42
2019-03-12T00:10:56.107Z,6.25
2019-03-12T00:13:25.747Z,6.72
2019-03-12T00:15:55.890Z,6.47
2019-03-12T00:18:28.210Z,6.22
2019-03-12T00:20:56.548Z,6.95
2019-03-12T00:23:26.349Z,7.17
2019-03-12T00:25:55.810Z,8.30
2019-03-12T00:28:25.226Z,9.90
2019-03-12T00:30:54.617Z,8.20
2019-03-12T00:33:24.307Z,8.50
2019-03-12T00:35:53.775Z,10.40
2019-03-12T00:38:23.381Z,11.20
2019-03-12T00:40:53.223Z,9.68
2019-03-12T00:43:22.779Z,10.38
2019-03-12T00:45:52.122Z,11.05
2019-03-12T00:48:21.453Z,16.23
2019-03-12T00:50:50.902Z,14.60
2019-03-12T00:53:20.352Z,10.72
2019-03-12T00:55:49.754Z,10.72
2019-03-12T00:58:19.201Z,11.18
2019-03-12T01:00:48.802Z,13.48
2019-03-12T01:03:18.255Z,12.25
2019-03-12T01:05:47.699Z,11.38
2019-03-12T01:08:18.257Z,10.65
2019-03-12T01:10:47.637Z,9.10
2019-03-12T01:13:17.929Z,9.13
2019-03-12T01:15:47.338Z,9.53
2019-03-12T01:18:16.716Z,9.33
2019-03-12T01:20:46.418Z,6.70
2019-03-12T01:23:15.955Z,8.88
2019-03-12T01:25:45.245Z,13.72
2019-03-12T01:28:15.042Z,10.40
2019-03-12T01:30:44.542Z,15.05
2019-03-12T01:33:14.501Z,9.23
2019-03-12T01:35:43.875Z,10.63
2019-03-12T01:38:13.468Z,10.58
2019-03-12T01:40:42.786Z,7.75
2019-03-12T01:43:12.131Z,7.85
2019-03-12T01:45:42.014Z,8.60
2019-03-12T01:48:11.475Z,7.80
2019-03-12T01:50:40.937Z,6.95
2019-03-12T01:53:11.546Z,7.22
2019-03-12T01:55:41.219Z,6.83
2019-03-12T01:58:10.898Z,7.62
2019-03-12T02:00:40.327Z,6.72
2019-03-12T02:03:10.076Z,7.70
2019-03-12T02:05:39.369Z,8.63
2019-03-12T02:08:08.831Z,8.78
2019-03-12T02:10:38.250Z,8.40
2019-03-12T02:13:07.630Z,11.88
2019-03-12T02:15:38.819Z,9.85
2019-03-12T02:18:08.363Z,8.35
2019-03-12T02:20:38.550Z,9.68
2019-03-12T02:23:08.067Z,9.53
2019-03-12T02:25:37.861Z,11.63
2019-03-12T02:28:19.580Z,8.08
2019-03-12T02:30:48.895Z,13.28
2019-03-12T02:33:18.314Z,10.58
2019-03-12T02:35:47.772Z,13.50
2019-03-12T02:38:17.638Z,9.10
2019-03-12T02:40:47.011Z,10.75
2019-03-12T02:43:16.329Z,11.22
2019-03-12T02:45:45.754Z,10.25
2019-03-12T02:48:15.182Z,9.45
2019-03-12T02:50:45.089Z,9.80
2019-03-12T02:53:14.467Z,9.70
2019-03-12T02:55:43.888Z,10.70
2019-03-12T02:58:13.658Z,10.60
2019-03-12T03:00:43.496Z,10.03
2019-03-12T03:03:12.898Z,11.80
2019-03-12T03:05:44.329Z,12.68
2019-03-12T03:08:14.346Z,11.68
2019-03-12T03:10:43.790Z,10.38
2019-03-12T03:13:13.231Z,13.13
2019-03-12T03:15:44.841Z,13.58
2019-03-12T03:18:14.722Z,11.78
2019-03-12T03:20:44.198Z,16.35
2019-03-12T03:23:13.971Z,15.03
2019-03-12T03:25:43.707Z,12.20
2019-03-12T03:28:13.066Z,11.73
2019-03-12T03:30:42.557Z,11.18
2019-03-12T03:33:12.000Z,15.40
2019-03-12T03:35:41.502Z,11.80
2019-03-12T03:38:10.921Z,12.03
2019-03-12T03:40:40.834Z,15.50
2019-03-12T03:43:10.331Z,11.73
2019-03-12T03:45:40.061Z,12.73
2019-03-12T03:48:09.518Z,10.48
2019-03-12T03:50:38.954Z,10.48
2019-03-12T03:53:08.462Z,11.65
2019-03-12T03:55:37.903Z,11.15
2019-03-12T03:58:07.272Z,11.40
2019-03-12T04:00:36.635Z,12.05
2019-03-12T04:03:06.253Z,11.75
2019-03-12T04:05:35.819Z,15.55
2019-03-12T04:08:05.204Z,13.98
2019-03-12T04:10:34.607Z,12.78
2019-03-12T04:13:03.928Z,14.05
2019-03-12T04:15:33.441Z,20.65
2019-03-12T04:18:02.827Z,15.40
2019-03-12T04:20:32.326Z,13.00
2019-03-12T04:23:02.298Z,15.72
2019-03-12T04:25:31.697Z,14.87
2019-03-12T04:28:01.676Z,19.75
2019-03-12T04:30:31.554Z,16.95
2019-03-12T04:33:01.195Z,21.85
2019-03-12T04:35:32.739Z,21.62
2019-03-12T04:38:02.275Z,18.05
2019-03-12T04:40:31.854Z,17.17
2019-03-12T04:43:01.482Z,19.25
2019-03-12T04:45:31.061Z,19.60
2019-03-12T04:48:00.728Z,19.42
2019-03-12T04:50:30.704Z,21.77
2019-03-12T04:53:00.155Z,16.82
2019-03-12T04:55:30.402Z,17.98
2019-03-12T04:57:59.723Z,15.72
2019-03-12T05:00:30.084Z,18.73
2019-03-12T05:02:59.711Z,18.80
2019-03-12T05:05:29.175Z,19.32
2019-03-12T05:07:58.763Z,23.22
2019-03-12T05:10:28.258Z,20.95
2019-03-12T05:12:57.745Z,19.95
2019-03-12T05:15:41.002Z,21.50
2019-03-12T05:18:09.472Z,19.95
2019-03-12T05:20:39.190Z,20.05
2019-03-12T05:23:09.206Z,21.35
2019-03-12T05:25:39.204Z,19.05
2019-03-12T05:28:10.381Z,22.95
2019-03-12T05:30:39.902Z,21.12
2019-03-12T05:33:09.596Z,21.87
2019-03-12T05:35:38.983Z,20.72
2019-03-12T05:38:08.531Z,20.25
2019-03-12T05:40:37.813Z,21.75
2019-03-12T05:43:07.069Z,22.05
2019-03-12T05:45:36.825Z,21.42
2019-03-12T05:48:06.074Z,22.20
2019-03-12T05:50:35.673Z,25.72
2019-03-12T05:53:14.097Z,19.35
2019-03-12T05:55:43.378Z,20.02
2019-03-12T05:58:12.968Z,17.75
2019-03-12T06:00:42.198Z,18.10
2019-03-12T06:03:11.637Z,18.50
2019-03-12T06:05:40.827Z,19.92
2019-03-12T06:08:09.997Z,19.48
2019-03-12T06:10:39.559Z,21.23
2019-03-12T06:13:08.776Z,20.20
2019-03-12T06:15:38.366Z,20.35
2019-03-12T06:18:07.861Z,20.05
2019-03-12T06:20:37.317Z,19.05
2019-03-12T06:23:06.613Z,22.15
2019-03-12T06:25:35.774Z,17.25
2019-03-12T06:28:04.937Z,18.30
2019-03-12T06:30:36.105Z,18.27
2019-03-12T06:33:13.157Z,15.20
2019-03-12T06:35:54.363Z,15.25
2019-03-12T06:38:31.389Z,15.08
2019-03-12T06:41:08.537Z,16.27
2019-03-12T06:43:45.408Z,14.33
2019-03-12T06:46:22.326Z,13.90
2019-03-12T06:48:59.044Z,14.53
2019-03-12T06:51:32.602Z,13.85
2019-03-12T06:54:03.446Z,13.00
2019-03-12T06:56:49.658Z,14.60
2019-03-12T06:59:30.105Z,11.93
2019-03-12T07:02:04.260Z,13.48
2019-03-12T07:04:51.636Z,12.40
2019-03-12T07:07:41.699Z,11.53
2019-03-12T07:10:24.145Z,10.72
2019-03-12T07:12:55.392Z,8.28
2019-03-12T07:15:38.202Z,9.00
2019-03-12T07:18:15.028Z,9.28
2019-03-12T07:20:46.123Z,9.08
2019-03-12T07:23:22.957Z,10.20
2019-03-12T07:26:05.802Z,8.28
2019-03-12T07:28:49.819Z,8.05
2019-03-12T07:31:12.151Z,7.30
2019-03-12T07:33:43.120Z,7.28
2019-03-12T07:36:26.003Z,7.22
2019-03-12T07:39:13.086Z,6.78
2019-03-12T07:42:00.479Z,6.08
2019-03-12T07:44:47.669Z,6.67
2019-03-12T07:47:36.227Z,6.55
2019-03-12T07:50:15.684Z,6.90
2019-03-12T07:53:03.490Z,5.97
2019-03-12T07:55:37.352Z,7.03
2019-03-12T07:58:11.158Z,6.47
2019-03-12T08:00:42.050Z,5.33
2019-03-12T08:03:21.642Z,7.05
2019-03-12T08:05:52.530Z,6.45
2019-03-12T08:08:38.487Z,5.45
2019-03-12T08:11:09.736Z,5.22
2019-03-12T08:13:52.769Z,5.95
2019-03-12T08:16:41.788Z,5.47
2019-03-12T08:19:18.288Z,5.50
2019-03-12T08:21:54.804Z,5.10
2019-03-12T08:24:28.421Z,5.28
2019-03-12T08:26:59.329Z,5.17
2019-03-12T08:29:30.225Z,4.92
2019-03-12T08:32:04.059Z,5.87
2019-03-12T08:34:41.140Z,7.03
2019-03-12T08:37:24.247Z,15.55
2019-03-12T08:39:58.412Z,6.12
2019-03-12T08:42:54.646Z,6.37
2019-03-12T08:45:34.282Z,5.60
2019-03-12T08:48:07.899Z,7.08
2019-03-12T08:50:44.511Z,5.45
2019-03-12T08:53:15.417Z,4.15
2019-03-12T08:55:58.695Z,4.42
2019-03-12T08:58:32.471Z,5.12
2019-03-12T09:01:06.158Z,11.75
2019-03-12T09:03:53.181Z,4.67
2019-03-12T09:06:36.141Z,4.60
2019-03-12T09:09:14.103Z,4.62
2019-03-12T09:11:45.022Z,3.98
2019-03-12T09:14:25.154Z,4.50
2019-03-12T09:17:12.655Z,5.15
2019-03-12T09:19:44.741Z,4.05
2019-03-12T09:22:18.853Z,4.20
2019-03-12T09:24:53.010Z,3.92
2019-03-12T09:27:39.179Z,4.10
2019-03-12T09:30:21.684Z,4.83
2019-03-12T09:32:56.432Z,4.83
2019-03-12T09:35:36.073Z,4.35
2019-03-12T09:38:12.967Z,3.85
2019-03-12T09:41:01.983Z,3.62
2019-03-12T09:43:50.880Z,4.00
2019-03-12T09:46:24.594Z,3.70
2019-03-12T09:49:12.147Z,3.62
2019-03-12T09:51:45.542Z,4.62
2019-03-12T09:54:16.427Z,4.42
2019-03-12T09:56:50.021Z,4.50
2019-03-12T09:59:39.521Z,3.90
2019-03-12T10:02:28.594Z,4.15
2019-03-12T10:04:59.497Z,4.22
2019-03-12T10:07:30.393Z,4.42
2019-03-12T10:10:07.032Z,4.53
2019-03-12T10:12:45.354Z,4.62
2019-03-12T10:15:34.796Z,4.33
2019-03-12T10:18:05.698Z,4.92
2019-03-12T10:20:52.715Z,6.03
2019-03-12T10:23:26.334Z,4.80
2019-03-12T10:26:13.742Z,5.12
2019-03-12T10:28:56.808Z,5.33
2019-03-12T10:31:39.786Z,5.40
2019-03-12T10:34:29.918Z,5.00
2019-03-12T10:37:13.955Z,4.92
2019-03-12T10:40:02.546Z,4.85
2019-03-12T10:42:37.365Z,5.10
2019-03-12T10:45:23.072Z,5.35
2019-03-12T10:47:59.813Z,5.50
2019-03-12T10:50:29.130Z,5.10
2019-03-12T10:52:58.486Z,5.12
2019-03-12T10:55:27.698Z,4.67
2019-03-12T10:57:56.927Z,6.05
2019-03-12T11:00:26.114Z,4.45
2019-03-12T11:02:55.386Z,4.97
2019-03-12T11:05:24.690Z,3.80
2019-03-12T11:07:53.952Z,3.87
2019-03-12T11:10:23.324Z,4.28
2019-03-12T11:12:52.547Z,4.70
2019-03-12T11:15:21.833Z,5.22
2019-03-12T11:17:51.098Z,4.33
2019-03-12T11:20:24.935Z,5.10
2019-03-12T11:22:54.538Z,5.12
2019-03-12T11:25:27.562Z,4.20
2019-03-12T11:27:54.817Z,3.95
2019-03-12T11:30:24.493Z,5.50
2019-03-12T11:32:54.108Z,4.22
2019-03-12T11:35:23.373Z,4.97
2019-03-12T11:37:53.618Z,4.75
2019-03-12T11:40:25.427Z,5.47
2019-03-12T11:42:55.020Z,5.15
2019-03-12T11:45:35.518Z,4.37
2019-03-12T11:47:55.325Z,5.00
2019-03-12T11:50:25.631Z,6.00
2019-03-12T11:52:58.888Z,4.28
2019-03-12T11:55:26.840Z,4.75
2019-03-12T11:57:56.073Z,5.17
2019-03-12T12:00:27.646Z,4.83
2019-03-12T12:03:00.267Z,4.78
2019-03-12T12:05:28.745Z,5.30
2019-03-12T12:07:58.398Z,4.50
2019-03-12T12:10:27.583Z,5.28
2019-03-12T12:12:57.052Z,5.30
2019-03-12T12:15:26.338Z,4.70
2019-03-12T12:17:55.579Z,5.60
2019-03-12T12:20:30.063Z,4.85
2019-03-12T12:22:56.443Z,4.62
2019-03-12T12:25:26.018Z,4.30
2019-03-12T12:27:55.256Z,4.70
2019-03-12T12:30:24.681Z,4.87
2019-03-12T12:32:54.051Z,4.87
2019-03-12T12:35:23.644Z,4.60
2019-03-12T12:37:53.255Z,4.25
2019-03-12T12:40:23.177Z,4.15
2019-03-12T12:42:52.474Z,3.98
2019-03-12T12:45:29.197Z,4.20
2019-03-12T12:47:58.896Z,3.95
2019-03-12T12:50:28.170Z,3.08
2019-03-12T12:52:57.415Z,3.30
2019-03-12T12:55:26.981Z,3.10
2019-03-12T12:57:56.583Z,3.05
2019-03-12T13:00:29.535Z,3.30
2019-03-12T13:02:59.167Z,3.10
2019-03-12T13:05:28.768Z,3.25
2019-03-12T13:07:58.043Z,3.27
2019-03-12T13:10:28.547Z,2.80
2019-03-12T13:12:57.809Z,3.67
2019-03-12T13:15:27.164Z,3.17
2019-03-12T13:17:56.438Z,3.30
2019-03-12T13:20:26.031Z,3.02
2019-03-12T13:22:55.634Z,3.83
2019-03-12T13:25:24.934Z,2.40
2019-03-12T13:27:54.213Z,2.95
2019-03-12T13:30:24.563Z,2.87
2019-03-12T13:32:54.169Z,3.65
2019-03-12T13:35:23.445Z,1.95
2019-03-12T13:37:52.707Z,3.55
2019-03-12T13:40:23.637Z,2.35
2019-03-12T13:42:52.949Z,2.67
2019-03-12T13:45:32.692Z,2.60
2019-03-12T13:48:02.958Z,3.45
2019-03-12T13:50:33.598Z,2.50
2019-03-12T13:53:02.860Z,2.92
2019-03-12T13:55:32.217Z,2.77
2019-03-12T13:58:01.581Z,2.55
2019-03-12T14:00:33.420Z,2.60
2019-03-12T14:03:01.806Z,2.70
2019-03-12T14:05:31.233Z,2.98
2019-03-12T14:08:00.537Z,2.83
2019-03-12T14:10:29.829Z,2.85
2019-03-12T14:12:59.152Z,3.60
2019-03-12T14:15:34.167Z,2.85
2019-03-12T14:18:03.449Z,3.20
2019-03-12T14:20:41.311Z,3.72
2019-03-12T14:23:16.773Z,3.33
2019-03-12T14:25:46.354Z,2.70
2019-03-12T14:28:16.876Z,3.10
2019-03-12T14:30:46.129Z,3.33
2019-03-12T14:33:16.490Z,3.12
2019-03-12T14:35:51.383Z,4.03
2019-03-12T14:38:17.038Z,3.30
2019-03-12T14:40:46.411Z,3.20
2019-03-12T14:43:15.675Z,3.05
2019-03-12T14:45:51.523Z,2.83
2019-03-12T14:48:44.358Z,2.50
2019-03-12T14:51:31.731Z,3.10
2019-03-12T14:54:03.419Z,2.80
2019-03-12T14:56:32.690Z,2.77
2019-03-12T14:59:01.951Z,2.65
2019-03-12T15:01:43.319Z,2.92
2019-03-12T15:04:18.794Z,2.72
2019-03-12T15:06:48.075Z,2.15
2019-03-12T15:09:17.410Z,2.60
2019-03-12T15:11:47.039Z,2.80
2019-03-12T15:14:31.407Z,2.75
2019-03-12T15:17:01.073Z,2.65
2019-03-12T15:19:30.340Z,2.72
2019-03-12T15:21:59.899Z,2.42
2019-03-12T15:24:29.301Z,2.37
2019-03-12T15:26:58.555Z,2.02
2019-03-12T15:29:28.206Z,3.05
2019-03-12T15:32:04.207Z,2.02
2019-03-12T15:34:28.346Z,2.55
2019-03-12T15:36:57.646Z,2.12
2019-03-12T15:39:27.294Z,2.40
2019-03-12T15:41:56.561Z,2.70
2019-03-12T15:44:25.822Z,2.50
2019-03-12T15:46:55.103Z,2.20
2019-03-12T15:49:24.425Z,2.25
2019-03-12T15:51:53.944Z,2.20
2019-03-12T15:54:23.217Z,2.27
2019-03-12T15:56:52.484Z,2.42
2019-03-12T15:59:21.748Z,2.25
2019-03-12T16:01:51.004Z,2.15
2019-03-12T16:04:20.283Z,2.50
2019-03-12T16:07:00.893Z,2.00
2019-03-12T16:09:20.710Z,1.80
2019-03-12T16:11:50.052Z,1.85
2019-03-12T16:14:19.358Z,2.10
2019-03-12T16:16:48.749Z,2.40
2019-03-12T16:19:18.451Z,1.98
2019-03-12T16:21:47.736Z,2.37
2019-03-12T16:24:17.015Z,2.33
2019-03-12T16:26:46.374Z,1.98
2019-03-12T16:29:15.835Z,1.98
2019-03-12T16:31:45.126Z,2.70
2019-03-12T16:34:14.927Z,3.10
2019-03-12T16:36:44.557Z,2.47
2019-03-12T16:39:13.897Z,2.42
2019-03-12T16:41:43.158Z,2.00
2019-03-12T16:44:13.511Z,2.15
2019-03-12T16:46:43.883Z,2.10
2019-03-12T16:49:13.185Z,1.80
2019-03-12T16:51:42.498Z,2.12
2019-03-12T16:54:12.185Z,1.87
2019-03-12T16:56:45.457Z,1.85
2019-03-12T16:59:13.409Z,1.87
2019-03-12T17:01:42.677Z,1.47
2019-03-12T17:04:12.015Z,2.20
2019-03-12T17:06:41.325Z,1.70
2019-03-12T17:09:10.564Z,2.00
2019-03-12T17:11:41.723Z,1.80
2019-03-12T17:14:11.056Z,2.33
2019-03-12T17:16:40.583Z,2.10
2019-03-12T17:19:09.846Z,1.72
2019-03-12T17:21:39.119Z,2.15
2019-03-12T17:24:08.798Z,2.35
2019-03-12T17:26:38.058Z,2.00
2019-03-12T17:29:07.346Z,1.85
2019-03-12T17:31:36.841Z,1.70
2019-03-12T17:34:06.179Z,1.92
2019-03-12T17:36:35.452Z,2.30
2019-03-12T17:39:06.171Z,2.08
2019-03-12T17:41:37.077Z,1.90
2019-03-12T17:44:06.396Z,2.00
2019-03-12T17:46:35.627Z,1.57
2019-03-12T17:49:04.967Z,2.05
2019-03-12T17:51:34.341Z,1.70
2019-03-12T17:54:03.684Z,1.80
2019-03-12T17:56:33.010Z,2.00
2019-03-12T17:59:02.252Z,1.90
2019-03-12T18:01:31.771Z,1.95
2019-03-12T18:04:10.548Z,2.17
2019-03-12T18:06:48.249Z,3.20
2019-03-12T18:09:25.976Z,1.85
2019-03-12T18:12:00.474Z,2.95
2019-03-12T18:15:02.197Z,1.65
2019-03-12T18:17:57.661Z,3.20
2019-03-12T18:20:33.984Z,2.10
2019-03-12T18:23:08.036Z,1.90
2019-03-12T18:25:47.904Z,2.10
2019-03-12T18:28:22.464Z,2.12
2019-03-12T18:31:22.550Z,2.00
2019-03-12T18:37:00.461Z,2.27
2019-03-12T18:39:42.357Z,1.70
2019-03-12T18:42:38.336Z,1.72
2019-03-12T18:45:12.552Z,1.85
2019-03-12T18:47:51.544Z,2.00
2019-03-12T18:50:27.992Z,1.90
2019-03-12T18:53:12.445Z,1.62
2019-03-12T18:55:53.449Z,2.20
2019-03-12T18:58:37.017Z,2.25
2019-03-12T19:01:23.215Z,1.62
2019-03-12T19:04:00.026Z,1.90
2019-03-12T19:06:44.628Z,1.60
2019-03-12T19:09:26.457Z,1.80
2019-03-12T19:12:01.974Z,1.47
2019-03-12T19:14:38.444Z,1.50
2019-03-12T19:17:16.463Z,1.82
2019-03-12T19:19:52.416Z,1.87
2019-03-12T19:22:38.201Z,1.57
2019-03-12T19:25:33.936Z,1.47
2019-03-12T19:28:09.576Z,1.40
2019-03-12T19:30:46.561Z,2.20
2019-03-12T19:33:35.146Z,2.33
2019-03-12T19:36:06.383Z,1.50
2019-03-12T19:38:56.309Z,1.92
2019-03-12T19:41:36.470Z,1.25
2019-03-12T19:44:22.505Z,2.00
2019-03-12T19:47:12.490Z,2.00
2019-03-12T19:49:56.248Z,1.45
2019-03-12T19:52:32.608Z,1.62
2019-03-12T19:57:50.710Z,2.12
2019-03-12T20:00:29.578Z,1.60
2019-03-12T20:03:15.131Z,2.10
2019-03-12T20:06:05.266Z,1.60
2019-03-12T20:08:36.840Z,2.42
2019-03-12T20:11:34.749Z,2.12
2019-03-12T20:18:13.209Z,1.40
2019-03-12T20:24:43.945Z,1.70
2019-03-12T20:27:33.126Z,1.82
2019-03-12T20:30:42.686Z,2.02
2019-03-12T20:33:35.320Z,1.60
2019-03-12T20:36:40.804Z,1.80
2019-03-12T20:39:49.221Z,1.65
2019-03-12T20:42:43.674Z,2.02
2019-03-12T20:45:24.922Z,1.47
2019-03-12T20:48:28.807Z,1.80
2019-03-12T20:51:23.019Z,1.57
2019-03-12T20:54:03.141Z,1.22
2019-03-12T20:57:14.433Z,1.90
2019-03-12T21:00:13.088Z,1.27
2019-03-12T21:03:36.413Z,1.50
2019-03-12T21:06:35.318Z,1.40
2019-03-12T21:09:51.035Z,1.47
2019-03-12T21:13:04.303Z,1.50
2019-03-12T21:16:04.641Z,1.27
2019-03-12T21:19:14.147Z,1.30
2019-03-12T21:22:04.024Z,1.57
2019-03-12T21:31:16.934Z,1.55
2019-03-12T21:34:26.386Z,1.62
2019-03-12T21:37:05.322Z,1.22
2019-03-12T21:42:43.111Z,1.90
2019-03-12T21:45:30.793Z,2.12
2019-03-12T21:48:41.564Z,1.60
2019-03-12T21:51:03.972Z,1.55
2019-03-12T21:53:52.973Z,1.82
2019-03-12T21:56:30.117Z,1.60
2019-03-12T21:59:16.799Z,1.50
2019-03-12T22:02:05.570Z,1.42
2019-03-12T22:04:58.367Z,1.47
2019-03-12T22:07:55.725Z,1.35
2019-03-12T22:10:39.941Z,1.55
2019-03-12T22:13:14.189Z,1.40
2019-03-12T22:16:16.609Z,1.57
2019-03-12T22:18:50.234Z,1.77
2019-03-12T22:21:50.748Z,1.27
2019-03-12T22:24:35.264Z,1.75
2019-03-12T22:27:16.728Z,1.75
2019-03-12T22:30:26.967Z,1.22
2019-03-12T22:33:13.213Z,1.22
2019-03-12T22:36:00.585Z,1.37
2019-03-12T22:38:40.155Z,1.57
2019-03-12T22:41:12.427Z,1.35
2019-03-12T22:43:52.422Z,1.47
2019-03-12T22:46:46.541Z,1.70
2019-03-12T22:52:25.571Z,1.35
2019-03-12T22:55:10.509Z,1.42
2019-03-12T22:57:45.623Z,1.50
2019-03-12T23:00:56.242Z,1.30
2019-03-12T23:03:47.893Z,1.12
2019-03-12T23:06:41.580Z,1.45
2019-03-12T23:09:34.023Z,1.45
2019-03-12T23:12:06.581Z,1.17
2019-03-12T23:14:45.742Z,1.60
2019-03-12T23:17:21.944Z,1.17
2019-03-12T23:20:00.420Z,1.00
2019-03-12T23:22:39.140Z,1.22
2019-03-12T23:25:37.285Z,1.22
2019-03-12T23:28:09.202Z,1.70
2019-03-12T23:30:38.690Z,1.60
2019-03-12T23:33:13.596Z,1.60
2019-03-12T23:35:58.135Z,1.30
2019-03-12T23:38:21.702Z,1.60
2019-03-12T23:40:56.787Z,1.57
2019-03-12T23:43:27.784Z,1.55
2019-03-12T23:48:43.660Z,1.42
2019-03-12T23:51:23.867Z,1.17
2019-03-12T23:54:01.039Z,1.67
2019-03-12T23:56:30.896Z,1.25
2019-03-12T23:59:05.334Z,1.22
